CSCL Arctic Ocean — VROD9 — position and weather

sailwx.info

Track history (hours):
 
Tides and Currents Weather Stations Pressure Air Temp Water Temp Dewpoint Dewpoint Depression Visibility Wind Speed Wind Dir Waves Ship Positions

CSCL Arctic Ocean

Last reported at 2017-Sep-20 18:23 UTC. Time now 2017-Sep-23 07:44 UTC.
Position N 22°34' E 114°17'.

Length 400 m; draft 13.8 m.

Type: Cargo ship. MMSI: 477967700.

Date/timePositionNaut miles runAvg speedWind from/ knotsBaromVisibWave heightAir tempDewpointWater temp
2017-Sep-20 18:23N 22°34' E 114°17'129 4.5
2017-Sep-19 13:39N 22°39' E 116°36'320.8
2017-Sep-19 13:30N 22°40' E 116°40'1019.4
2017-Sep-19 13:00N 22°44' E 116°49'814.4
2017-Sep-19 12:27N 22°51' E 116°53'919.3
2017-Sep-19 12:00N 22°56' E 117°01'1019.7
2017-Sep-19 11:30N 23°03' E 117°08'1020.6
2017-Sep-19 11:00N 23°07' E 117°19'1421.0
2017-Sep-19 10:21N 23°14' E 117°32'720.7
2017-Sep-19 10:00N 23°19' E 117°38'1021.1
2017-Sep-19 09:30N 23°25' E 117°47'3121.3
2017-Sep-19 08:03N 23°49' E 118°08'121.6
2017-Sep-19 08:00N 23°50' E 118°09'1121.3
2017-Sep-19 07:30N 23°58' E 118°15'816.6
2017-Sep-19 07:00N 24°06' E 118°19'714.7
2017-Sep-19 06:30N 24°13' E 118°17'612.1
2017-Sep-19 06:00N 24°18' E 118°13'5 9.7
2017-Sep-19 05:30N 24°21' E 118°09'510.9
2017-Sep-19 05:00N 24°25' E 118°05'611.1
2017-Sep-19 04:30N 24°27' E 117°59'0 0.1
2017-Sep-19 01:02N 24°27' E 117°59'0 0.0
2017-Sep-19 00:56N 24°27' E 117°59'0 0.0
2017-Sep-19 00:26N 24°27' E 117°59'0 0.0
2017-Sep-18 22:59N 24°27' E 117°59'0 0.0
2017-Sep-18 14:14N 24°27' E 117°59'0 0.0
2017-Sep-18 13:56N 24°27' E 117°59'0 0.0
2017-Sep-18 13:23N 24°27' E 117°59'0 0.0
2017-Sep-18 12:59N 24°27' E 117°59'0 0.0
2017-Sep-18 12:29N 24°27' E 117°59'0 0.0
2017-Sep-18 11:59N 24°27' E 117°59'0 0.0
2017-Sep-18 10:23N 24°27' E 117°59'0 0.0
2017-Sep-18 01:02N 24°27' E 117°59'0 0.0
2017-Sep-18 00:56N 24°27' E 117°59'0 0.0
2017-Sep-17 21:56N 24°27' E 117°59'0 0.0
2017-Sep-17 20:17N 24°27' E 117°59'0 0.0
2017-Sep-17 18:47N 24°27' E 117°59'0 0.0
2017-Sep-17 16:47N 24°27' E 117°59'0 0.0
2017-Sep-17 16:30N 24°27' E 117°59'0 0.6
2017-Sep-17 16:00N 24°27' E 117°59'3 6.7
2017-Sep-17 15:30N 24°26' E 118°02'611.8
2017-Sep-17 15:00N 24°23' E 118°08'510.5
2017-Sep-17 14:30N 24°19' E 118°12'5 9.5
2017-Sep-17 13:59N 24°15' E 118°15'4 8.6
2017-Sep-17 13:30N 24°12' E 118°18'4 8.0
2017-Sep-17 13:00N 24°09' E 118°20'510.7
2017-Sep-17 12:30N 24°09' E 118°26'7 9.8
2017-Sep-17 11:49N 24°12' E 118°33'3416.2
2017-Sep-17 09:44N 24°27' E 119°06'416.6
2017-Sep-17 09:30N 24°30' E 119°09'816.3
2017-Sep-17 09:00N 24°34' E 119°17'816.5
2017-Sep-17 08:30N 24°39' E 119°24'  
2017-Sep-13 22:26N 30°58' E 123°15'2614.5
2017-Sep-13 20:40N 30°32' E 123°15'314.6
2017-Sep-13 20:27N 30°29' E 123°14'3411.2
2017-Sep-13 17:23N 29°57' E 122°60'513.2
2017-Sep-13 17:00N 29°54' E 122°55'713.4
2017-Sep-13 16:30N 29°51' E 122°48'713.3
2017-Sep-13 15:59N 29°47' E 122°41'713.4
2017-Sep-13 15:30N 29°45' E 122°34'713.4
2017-Sep-13 15:00N 29°45' E 122°26'714.8
2017-Sep-13 14:30N 29°46' E 122°18'612.2
2017-Sep-13 14:00N 29°50' E 122°13'611.7
2017-Sep-13 13:30N 29°55' E 122°10'511.0
2017-Sep-13 13:00N 29°54' E 122°03'1 0.1
2017-Sep-13 04:44N 29°53' E 122°04'0 0.2
2017-Sep-13 04:25N 29°53' E 122°04'0 0.1
2017-Sep-13 03:56N 29°53' E 122°04'0 0.0
2017-Sep-13 03:19N 29°53' E 122°04'0 0.0
2017-Sep-13 02:55N 29°53' E 122°04'0 0.1
2017-Sep-13 02:25N 29°53' E 122°04'0 0.1
2017-Sep-13 01:55N 29°53' E 122°04'0 0.0
2017-Sep-13 01:25N 29°53' E 122°04'0 0.0
2017-Sep-13 00:56N 29°53' E 122°04'0 0.0
2017-Sep-13 00:25N 29°53' E 122°04'0 0.1
2017-Sep-12 23:55N 29°53' E 122°04'0 0.1
2017-Sep-12 23:25N 29°53' E 122°04'0 0.0
2017-Sep-12 22:55N 29°53' E 122°04'0 0.0
2017-Sep-12 22:25N 29°53' E 122°04'0 0.0
2017-Sep-12 21:55N 29°53' E 122°04'0 0.0
2017-Sep-12 21:25N 29°53' E 122°04'0 0.0
2017-Sep-12 20:55N 29°53' E 122°04'0 0.0
2017-Sep-12 20:19N 29°53' E 122°04'0 0.0
2017-Sep-12 19:55N 29°53' E 122°04'0 0.0
2017-Sep-12 19:25N 29°53' E 122°04'0 0.1
2017-Sep-12 19:01N 29°53' E 122°04'1 2.1
2017-Sep-12 18:30N 29°54' E 122°04'1 2.5
2017-Sep-12 18:01N 29°55' E 122°05'5 9.1
2017-Sep-12 17:30N 29°54' E 122°11'612.5
2017-Sep-12 17:00N 29°49' E 122°14'510.8
2017-Sep-12 16:30N 29°45' E 122°19'714.5
2017-Sep-12 16:00N 29°43' E 122°27'612.5
2017-Sep-12 15:30N 29°44' E 122°34'3 5.3
2017-Sep-12 15:00N 29°45' E 122°37'1 1.0
2017-Sep-12 14:31N 29°45' E 122°37'1 2.8
2017-Sep-12 14:00N 29°46' E 122°38'3 6.7
2017-Sep-12 13:30N 29°48' E 122°41'510.1
2017-Sep-12 12:59N 29°52' E 122°45'11 9.9
2017-Sep-12 11:53N 30°00' E 122°53'19 8.0
2017-Sep-12 09:33N 30°18' E 122°57'6 9.1
2017-Sep-12 08:55N 30°22' E 122°52'4 9.0
2017-Sep-12 08:27N 30°25' E 122°49'6 8.8
2017-Sep-12 07:48N 30°28' E 122°43'5 8.5
2017-Sep-12 07:15N 30°29' E 122°38'4 8.3
2017-Sep-12 06:47N 30°30' E 122°33'  
Track history (hours):
 
Tides and Currents Weather Stations Pressure Air Temp Water Temp Dewpoint Dewpoint Depression Visibility Wind Speed Wind Dir Waves Ship Positions

CSCL Arctic Ocean

Last reported at 2017-Sep-20 18:23 UTC. Time now 2017-Sep-23 07:44 UTC.
Position N 22°34' E 114°17'.

Length 400 m; draft 13.8 m.

Type: Cargo ship. MMSI: 477967700.

Date/timePositionNaut miles runAvg speedWind from/ knotsBaromVisibWave heightAir tempDewpointWater temp
2017-Sep-20 18:23N 22°34' E 114°17'129 4.5
2017-Sep-19 13:39N 22°39' E 116°36'320.8
2017-Sep-19 13:30N 22°40' E 116°40'1019.4
2017-Sep-19 13:00N 22°44' E 116°49'814.4
2017-Sep-19 12:27N 22°51' E 116°53'919.3
2017-Sep-19 12:00N 22°56' E 117°01'1019.7
2017-Sep-19 11:30N 23°03' E 117°08'1020.6
2017-Sep-19 11:00N 23°07' E 117°19'1421.0
2017-Sep-19 10:21N 23°14' E 117°32'720.7
2017-Sep-19 10:00N 23°19' E 117°38'1021.1
2017-Sep-19 09:30N 23°25' E 117°47'3121.3
2017-Sep-19 08:03N 23°49' E 118°08'121.6
2017-Sep-19 08:00N 23°50' E 118°09'1121.3
2017-Sep-19 07:30N 23°58' E 118°15'816.6
2017-Sep-19 07:00N 24°06' E 118°19'714.7
2017-Sep-19 06:30N 24°13' E 118°17'612.1
2017-Sep-19 06:00N 24°18' E 118°13'5 9.7
2017-Sep-19 05:30N 24°21' E 118°09'510.9
2017-Sep-19 05:00N 24°25' E 118°05'611.1
2017-Sep-19 04:30N 24°27' E 117°59'0 0.1
2017-Sep-19 01:02N 24°27' E 117°59'0 0.0
2017-Sep-19 00:56N 24°27' E 117°59'0 0.0
2017-Sep-19 00:26N 24°27' E 117°59'0 0.0
2017-Sep-18 22:59N 24°27' E 117°59'0 0.0
2017-Sep-18 14:14N 24°27' E 117°59'0 0.0
2017-Sep-18 13:56N 24°27' E 117°59'0 0.0
2017-Sep-18 13:23N 24°27' E 117°59'0 0.0
2017-Sep-18 12:59N 24°27' E 117°59'0 0.0
2017-Sep-18 12:29N 24°27' E 117°59'0 0.0
2017-Sep-18 11:59N 24°27' E 117°59'0 0.0
2017-Sep-18 10:23N 24°27' E 117°59'0 0.0
2017-Sep-18 01:02N 24°27' E 117°59'0 0.0
2017-Sep-18 00:56N 24°27' E 117°59'0 0.0
2017-Sep-17 21:56N 24°27' E 117°59'0 0.0
2017-Sep-17 20:17N 24°27' E 117°59'0 0.0
2017-Sep-17 18:47N 24°27' E 117°59'0 0.0
2017-Sep-17 16:47N 24°27' E 117°59'0 0.0
2017-Sep-17 16:30N 24°27' E 117°59'0 0.6
2017-Sep-17 16:00N 24°27' E 117°59'3 6.7
2017-Sep-17 15:30N 24°26' E 118°02'611.8
2017-Sep-17 15:00N 24°23' E 118°08'510.5
2017-Sep-17 14:30N 24°19' E 118°12'5 9.5
2017-Sep-17 13:59N 24°15' E 118°15'4 8.6
2017-Sep-17 13:30N 24°12' E 118°18'4 8.0
2017-Sep-17 13:00N 24°09' E 118°20'510.7
2017-Sep-17 12:30N 24°09' E 118°26'7 9.8
2017-Sep-17 11:49N 24°12' E 118°33'3416.2
2017-Sep-17 09:44N 24°27' E 119°06'416.6
2017-Sep-17 09:30N 24°30' E 119°09'816.3
2017-Sep-17 09:00N 24°34' E 119°17'816.5
2017-Sep-17 08:30N 24°39' E 119°24'  
2017-Sep-13 22:26N 30°58' E 123°15'2614.5
2017-Sep-13 20:40N 30°32' E 123°15'314.6
2017-Sep-13 20:27N 30°29' E 123°14'3411.2
2017-Sep-13 17:23N 29°57' E 122°60'513.2
2017-Sep-13 17:00N 29°54' E 122°55'713.4
2017-Sep-13 16:30N 29°51' E 122°48'713.3
2017-Sep-13 15:59N 29°47' E 122°41'713.4
2017-Sep-13 15:30N 29°45' E 122°34'713.4
2017-Sep-13 15:00N 29°45' E 122°26'714.8
2017-Sep-13 14:30N 29°46' E 122°18'612.2
2017-Sep-13 14:00N 29°50' E 122°13'611.7
2017-Sep-13 13:30N 29°55' E 122°10'511.0
2017-Sep-13 13:00N 29°54' E 122°03'1 0.1
2017-Sep-13 04:44N 29°53' E 122°04'0 0.2
2017-Sep-13 04:25N 29°53' E 122°04'0 0.1
2017-Sep-13 03:56N 29°53' E 122°04'0 0.0
2017-Sep-13 03:19N 29°53' E 122°04'0 0.0
2017-Sep-13 02:55N 29°53' E 122°04'0 0.1
2017-Sep-13 02:25N 29°53' E 122°04'0 0.1
2017-Sep-13 01:55N 29°53' E 122°04'0 0.0
2017-Sep-13 01:25N 29°53' E 122°04'0 0.0
2017-Sep-13 00:56N 29°53' E 122°04'0 0.0
2017-Sep-13 00:25N 29°53' E 122°04'0 0.1
2017-Sep-12 23:55N 29°53' E 122°04'0 0.1
2017-Sep-12 23:25N 29°53' E 122°04'0 0.0
2017-Sep-12 22:55N 29°53' E 122°04'0 0.0
2017-Sep-12 22:25N 29°53' E 122°04'0 0.0
2017-Sep-12 21:55N 29°53' E 122°04'0 0.0
2017-Sep-12 21:25N 29°53' E 122°04'0 0.0
2017-Sep-12 20:55N 29°53' E 122°04'0 0.0
2017-Sep-12 20:19N 29°53' E 122°04'0 0.0
2017-Sep-12 19:55N 29°53' E 122°04'0 0.0
2017-Sep-12 19:25N 29°53' E 122°04'0 0.1
2017-Sep-12 19:01N 29°53' E 122°04'1 2.1
2017-Sep-12 18:30N 29°54' E 122°04'1 2.5
2017-Sep-12 18:01N 29°55' E 122°05'5 9.1
2017-Sep-12 17:30N 29°54' E 122°11'612.5
2017-Sep-12 17:00N 29°49' E 122°14'510.8
2017-Sep-12 16:30N 29°45' E 122°19'714.5
2017-Sep-12 16:00N 29°43' E 122°27'612.5
2017-Sep-12 15:30N 29°44' E 122°34'3 5.3
2017-Sep-12 15:00N 29°45' E 122°37'1 1.0
2017-Sep-12 14:31N 29°45' E 122°37'1 2.8
2017-Sep-12 14:00N 29°46' E 122°38'3 6.7
2017-Sep-12 13:30N 29°48' E 122°41'510.1
2017-Sep-12 12:59N 29°52' E 122°45'11 9.9
2017-Sep-12 11:53N 30°00' E 122°53'19 8.0
2017-Sep-12 09:33N 30°18' E 122°57'6 9.1
2017-Sep-12 08:55N 30°22' E 122°52'4 9.0
2017-Sep-12 08:27N 30°25' E 122°49'6 8.8
2017-Sep-12 07:48N 30°28' E 122°43'5 8.5
2017-Sep-12 07:15N 30°29' E 122°38'4 8.3
2017-Sep-12 06:47N 30°30' E 122°33'  

Dump ship's entire track history